Grayling, MI

5:40 PM EDT on June 22, 2017 (GMT -0400)
Grayling

Weather History for KGOV - April, 2014

Change the Weather History Date:

Wednesday, April 2, 2014

  Actual Average (KHTL) Record (KHTL)
Temperature  
Mean Temperature 30 °F -  
Max Temperature 38 °F 45 °F 81 °F (2010)
Min Temperature 22 °F 27 °F 2 °F (1924)
Degree Days  
Heating Degree Days 34    
Moisture  
Dew Point 18 °F    
Average Humidity 62    
Maximum Humidity 85    
Minimum Humidity 43    
Precipitation  
Precipitation 0.00 in - - ()
Sea Level Pressure  
Sea Level Pressure 30.11 in    
Wind  
Wind Speed 10 mph (WNW)    
Max Wind Speed 17 mph    
Max Gust Speed 29 mph    
Visibility 10 miles    
Events      
Averages and records for this station are not official NWS values.
T = Trace of Precipitation, MM = Missing Value Source: NWS Daily Summary

Daily Weather History Graph

Daily Weather History Graph

Search for Another Location

Airport or City:

Trip Planner

Search our weather history database for the weather conditions in past years. The results will help you decide how hot, cold, wet, or windy it might be!

Date:

Astronomy

Apr. 02, 2014 Rise Set
Actual Time 7:17 AM EDT 8:07 PM EDT
Civil Twilight 6:48 AM EDT 8:37 PM EDT
Nautical Twilight 6:13 AM EDT 9:12 PM EDT
Astronomical Twilight 5:36 AM EDT 9:49 PM EDT
Moon 8:55 AM EDT (4/2) 11:37 PM EDT (4/2)
Length of Visible Light 13h 48m
Length of Day
12h 49m
Waxing Crescent, 10% of the Moon is Illuminated
Apr 2
Waxing Crescent
Apr 7
First Quarter
Apr 15
Full
Apr 22
Last Quarter
Apr 29
New

Hourly Weather History & Observations

Time (EDT) Temp. Windchill Dew Point Humidity Pressure Visibility Wind Dir Wind Speed Gust Speed Precip Events Conditions
12:14 AM 28.0 °F 16.1 °F 18.3 °F 67% 29.94 in 10.0 mi West 16.1 mph 24.2 mph N/A   Overcast
12:35 AM 28.0 °F 17.0 °F 18.3 °F 67% 29.95 in 10.0 mi West 13.8 mph 28.8 mph N/A   Overcast
12:55 AM 28.0 °F 15.7 °F 17.8 °F 65% 29.96 in 10.0 mi WNW 17.3 mph 28.8 mph N/A   Overcast
1:15 AM 28.0 °F 17.5 °F 18.0 °F 66% 29.97 in 10.0 mi West 12.7 mph 21.9 mph N/A   Overcast
1:35 AM 28.0 °F 18.1 °F 18.3 °F 67% 29.97 in 10.0 mi WNW 11.5 mph 20.7 mph N/A   Overcast
1:55 AM 28.0 °F 17.5 °F 18.3 °F 67% 29.96 in 10.0 mi WNW 12.7 mph 19.6 mph N/A   Overcast
2:15 AM 28.0 °F 15.7 °F 18.9 °F 68% 29.97 in 10.0 mi WNW 17.3 mph 25.3 mph N/A   Overcast
2:35 AM 25.5 °F 16.2 °F 16.7 °F 69% 29.99 in 10.0 mi WNW 9.2 mph 23.0 mph N/A   Overcast
2:55 AM 25.5 °F 13.3 °F 16.7 °F 69% 30.00 in 10.0 mi NW 15.0 mph - N/A   Overcast
3:15 AM 25.2 °F 17.3 °F 16.5 °F 70% 30.01 in 10.0 mi WNW 6.9 mph - N/A   Overcast
3:34 AM 25.5 °F 16.9 °F 16.7 °F 69% 30.01 in 10.0 mi WNW 8.1 mph - N/A   Overcast
3:55 AM 25.5 °F 16.9 °F 16.7 °F 69% 30.02 in 10.0 mi West 8.1 mph - N/A   Overcast
4:15 AM 25.5 °F 15.5 °F 16.9 °F 70% 30.02 in 10.0 mi WNW 10.4 mph 16.1 mph N/A   Overcast
4:35 AM 25.5 °F 16.2 °F 16.9 °F 70% 30.02 in 10.0 mi West 9.2 mph 18.4 mph N/A   Overcast
4:55 AM 25.5 °F 13.3 °F 17.2 °F 71% 30.03 in 10.0 mi West 15.0 mph - N/A   Overcast
5:15 AM 25.5 °F 16.2 °F 17.4 °F 71% 30.04 in 10.0 mi West 9.2 mph - N/A   Overcast
5:35 AM 25.5 °F 16.9 °F 17.6 °F 72% 30.04 in 10.0 mi WNW 8.1 mph - N/A   Overcast
5:55 AM 25.5 °F 16.2 °F 17.6 °F 72% 30.04 in 10.0 mi WNW 9.2 mph 16.1 mph N/A   Overcast
6:15 AM 25.5 °F 15.5 °F 17.6 °F 72% 30.04 in 10.0 mi WNW 10.4 mph - N/A   Overcast
6:35 AM 25.5 °F 16.9 °F 17.6 °F 72% 30.05 in 10.0 mi West 8.1 mph - N/A   Overcast
6:55 AM 25.5 °F 16.9 °F 17.6 °F 72% 30.06 in 10.0 mi WNW 8.1 mph - N/A   Overcast
7:15 AM 25.5 °F 15.5 °F 17.6 °F 72% 30.07 in 10.0 mi WNW 10.4 mph - N/A   Overcast
8:55 AM 28.0 °F 20.8 °F 20.1 °F 72% 30.09 in 10.0 mi WNW 6.9 mph 10.4 mph N/A   Overcast
9:15 AM 28.0 °F 19.3 °F 20.5 °F 73% 30.09 in 10.0 mi NW 9.2 mph - N/A   Overcast
9:35 AM 28.0 °F 18.6 °F 20.5 °F 73% 30.10 in 10.0 mi WNW 10.4 mph - N/A   Overcast
9:55 AM 28.0 °F 18.1 °F 19.8 °F 71% 30.11 in 10.0 mi WNW 11.5 mph 16.1 mph N/A   Scattered Clouds
10:15 AM 28.2 °F 18.9 °F 18.9 °F 68% 30.12 in 10.0 mi WNW 10.4 mph - N/A   Scattered Clouds
10:35 AM 29.7 °F 22.8 °F 19.6 °F 66% 30.13 in 10.0 mi West 6.9 mph - N/A   Scattered Clouds
10:55 AM 30.6 °F 20.7 °F 19.0 °F 62% 30.13 in 10.0 mi West 12.7 mph - N/A   Clear
11:15 AM 31.3 °F 23.3 °F 19.6 °F 62% 30.14 in 10.0 mi West 9.2 mph - N/A   Clear
11:35 AM 32.9 °F 25.9 °F 20.3 °F 60% 30.14 in 10.0 mi West 8.1 mph - N/A   Clear
11:55 AM 32.9 °F 27.5 °F 19.8 °F 59% 30.14 in 10.0 mi SW 5.8 mph - N/A   Clear
12:15 PM 32.9 °F 26.7 °F 19.4 °F 58% 30.15 in 10.0 mi West 6.9 mph - N/A   Clear
12:35 PM 34.0 °F 27.2 °F 19.8 °F 56% 30.16 in 10.0 mi West 8.1 mph - N/A   Clear
12:55 PM 34.5 °F 26.7 °F 19.8 °F 55% 30.16 in 10.0 mi West 10.4 mph - N/A   Clear
1:13 PM 35.2 °F 29.5 °F 21.2 °F 57% 30.16 in 10.0 mi WNW 6.9 mph - N/A   Clear
1:55 PM 35.2 °F 31.2 °F 18.3 °F 50% 30.17 in 10.0 mi West 4.6 mph - N/A   Clear
2:15 PM 35.8 °F 29.4 °F 18.9 °F 50% 30.17 in 10.0 mi WNW 8.1 mph - N/A   Clear
2:35 PM 37.6 °F 32.3 °F 19.2 °F 48% 30.17 in 10.0 mi WNW 6.9 mph - N/A   Clear
2:55 PM 37.6 °F 31.0 °F 19.2 °F 48% 30.17 in 10.0 mi West 9.2 mph - N/A   Clear
3:15 PM 37.6 °F 33.1 °F 19.2 °F 48% 30.16 in 10.0 mi NW 5.8 mph - N/A   Clear
3:35 PM 37.6 °F 31.0 °F 18.5 °F 46% 30.16 in 10.0 mi NW 9.2 mph - N/A   Clear
3:55 PM 37.6 °F 30.5 °F 19.6 °F 48% 30.16 in 10.0 mi NNW 10.4 mph 16.1 mph N/A   Clear
4:15 PM 38.1 °F 32.3 °F 18.3 °F 45% 30.17 in 10.0 mi NW 8.1 mph - N/A   Clear
4:35 PM 38.8 °F 34.6 °F 18.5 °F 44% 30.17 in 10.0 mi WNW 5.8 mph - N/A   Clear
4:55 PM 38.8 °F 32.1 °F 18.3 °F 44% 30.16 in 10.0 mi NNW 10.4 mph - N/A   Clear
5:15 PM 37.9 °F 31.5 °F 18.3 °F 45% 30.16 in 10.0 mi NW 9.2 mph - N/A   Clear
5:35 PM 37.9 °F 31.5 °F 19.0 °F 47% 30.16 in 10.0 mi NW 9.2 mph - N/A   Clear
5:55 PM 37.8 °F 32.5 °F 18.1 °F 45% 30.16 in 10.0 mi NNW 6.9 mph - N/A   Clear
6:15 PM 37.6 °F 34.0 °F 16.9 °F 43% 30.16 in 10.0 mi NNW 4.6 mph - N/A   Clear
6:34 PM 37.6 °F 33.1 °F 18.0 °F 45% 30.16 in 10.0 mi North 5.8 mph - N/A   Clear
6:55 PM 37.6 °F 32.3 °F 18.1 °F 45% 30.16 in 10.0 mi NW 6.9 mph - N/A   Clear
7:15 PM 37.4 °F 31.4 °F 18.7 °F 47% 30.17 in 10.0 mi North 8.1 mph - N/A   Clear
7:35 PM 35.2 °F 28.8 °F 18.9 °F 51% 30.17 in 10.0 mi NNW 8.1 mph - N/A   Clear
7:55 PM 33.8 °F 29.6 °F 17.6 °F 52% 30.18 in 10.0 mi NW 4.6 mph - N/A   Clear
8:15 PM 32.9 °F 29.8 °F 16.0 °F 50% 30.19 in 10.0 mi NW 3.5 mph - N/A   Clear
8:35 PM 32.9 °F 28.5 °F 18.0 °F 54% 30.19 in 10.0 mi North 4.6 mph - N/A   Clear
8:55 PM 30.6 °F - 17.8 °F 59% 30.21 in 10.0 mi Calm Calm - N/A   Clear
9:15 PM 29.1 °F - 17.4 °F 62% 30.21 in 10.0 mi Calm Calm - N/A   Clear
9:35 PM 28.0 °F - 21.0 °F 75% 30.21 in 10.0 mi Calm Calm - N/A   Clear
9:55 PM 28.0 °F - 18.5 °F 67% 30.22 in 10.0 mi Calm Calm - N/A   Clear
10:15 PM 27.5 °F - 19.4 °F 72% 30.23 in 10.0 mi Calm Calm - N/A   Clear
10:34 PM 25.5 °F - 17.1 °F 70% 30.23 in 7.0 mi Calm Calm - N/A   Clear
10:55 PM 25.5 °F - 18.9 °F 76% 30.23 in 10.0 mi Calm Calm - N/A   Clear
11:15 PM 23.4 °F - 19.4 °F 85% 30.23 in 10.0 mi Calm Calm - N/A   Clear
11:35 PM 22.6 °F - 18.5 °F 84% 30.23 in 10.0 mi Calm Calm - N/A   Clear